sensor_id;sensor_type;location;lat;lon;timestamp;pressure;altitude;pressure_sealevel;temperature;humidity
48846;BME280;34665;51.886;5.436;2023-07-22T00:01:05;101223.09;;;28.81;49.21
48846;BME280;34665;51.886;5.436;2023-07-22T00:03:31;101224.06;;;28.62;49.45
48846;BME280;34665;51.886;5.436;2023-07-22T00:06:06;101224.13;;;28.85;49.24
48846;BME280;34665;51.886;5.436;2023-07-22T00:08:32;101223.00;;;29.09;48.42
48846;BME280;34665;51.886;5.436;2023-07-22T00:10:58;101224.78;;;29.36;47.26
48846;BME280;34665;51.886;5.436;2023-07-22T00:13:24;101227.19;;;29.29;47.67
48846;BME280;34665;51.886;5.436;2023-07-22T00:15:52;101224.06;;;28.99;47.84
48846;BME280;34665;51.886;5.436;2023-07-22T00:18:18;101222.19;;;29.08;48.07
48846;BME280;34665;51.886;5.436;2023-07-22T00:20:44;101217.00;;;29.07;47.68
48846;BME280;34665;51.886;5.436;2023-07-22T00:23:09;101204.66;;;29.27;47.12
48846;BME280;34665;51.886;5.436;2023-07-22T00:25:36;101208.47;;;28.94;48.39
48846;BME280;34665;51.886;5.436;2023-07-22T00:28:01;101212.97;;;29.58;47.24
48846;BME280;34665;51.886;5.436;2023-07-22T00:30:26;101218.34;;;29.64;46.90
48846;BME280;34665;51.886;5.436;2023-07-22T00:32:54;101211.09;;;29.22;48.00
48846;BME280;34665;51.886;5.436;2023-07-22T00:35:19;101201.31;;;29.39;48.13
48846;BME280;34665;51.886;5.436;2023-07-22T00:37:45;101211.47;;;29.52;47.39
48846;BME280;34665;51.886;5.436;2023-07-22T00:40:11;101209.22;;;29.54;46.86
48846;BME280;34665;51.886;5.436;2023-07-22T00:42:38;101206.97;;;28.88;48.63
48846;BME280;34665;51.886;5.436;2023-07-22T00:45:03;101211.28;;;29.48;47.42
48846;BME280;34665;51.886;5.436;2023-07-22T00:47:29;101208.53;;;29.03;48.32
48846;BME280;34665;51.886;5.436;2023-07-22T00:49:54;101201.59;;;29.05;48.44
48846;BME280;34665;51.886;5.436;2023-07-22T00:52:21;101198.81;;;28.83;49.45
48846;BME280;34665;51.886;5.436;2023-07-22T00:54:47;101207.91;;;29.52;47.39
48846;BME280;34665;51.886;5.436;2023-07-22T00:57:12;101200.84;;;29.37;47.48
48846;BME280;34665;51.886;5.436;2023-07-22T00:59:38;101198.38;;;28.53;49.16
48846;BME280;34665;51.886;5.436;2023-07-22T01:02:04;101203.78;;;28.44;49.92
48846;BME280;34665;51.886;5.436;2023-07-22T01:04:32;101202.59;;;28.36;50.29
48846;BME280;34665;51.886;5.436;2023-07-22T01:06:58;101198.31;;;28.30;50.31
48846;BME280;34665;51.886;5.436;2023-07-22T01:09:26;101198.94;;;28.27;51.00
48846;BME280;34665;51.886;5.436;2023-07-22T01:11:52;101195.28;;;28.17;51.55
48846;BME280;34665;51.886;5.436;2023-07-22T01:14:17;101191.59;;;28.08;51.45
48846;BME280;34665;51.886;5.436;2023-07-22T01:16:43;101183.06;;;28.10;51.26
48846;BME280;34665;51.886;5.436;2023-07-22T01:19:08;101195.44;;;27.65;53.54
48846;BME280;34665;51.886;5.436;2023-07-22T01:21:36;101180.38;;;27.90;52.45
48846;BME280;34665;51.886;5.436;2023-07-22T01:24:02;101180.94;;;28.21;51.47
48846;BME280;34665;51.886;5.436;2023-07-22T01:26:27;101182.84;;;28.20;51.60
48846;BME280;34665;51.886;5.436;2023-07-22T01:29:01;101181.94;;;27.97;51.74
48846;BME280;34665;51.886;5.436;2023-07-22T01:31:26;101181.53;;;27.09;56.10
48846;BME280;34665;51.886;5.436;2023-07-22T01:33:52;101177.53;;;27.68;54.11
48846;BME280;34665;51.886;5.436;2023-07-22T01:36:18;101179.22;;;27.49;53.23
48846;BME280;34665;51.886;5.436;2023-07-22T01:38:43;101179.47;;;27.53;54.37
48846;BME280;34665;51.886;5.436;2023-07-22T01:41:09;101179.06;;;27.27;55.98
48846;BME280;34665;51.886;5.436;2023-07-22T01:43:34;101179.88;;;27.60;53.57
48846;BME280;34665;51.886;5.436;2023-07-22T01:45:59;101173.19;;;27.95;52.40
48846;BME280;34665;51.886;5.436;2023-07-22T01:48:26;101173.81;;;28.19;51.66
48846;BME280;34665;51.886;5.436;2023-07-22T01:50:51;101177.97;;;27.42;54.84
48846;BME280;34665;51.886;5.436;2023-07-22T01:53:17;101174.88;;;27.62;54.63
48846;BME280;34665;51.886;5.436;2023-07-22T01:55:42;101184.91;;;27.39;55.00
48846;BME280;34665;51.886;5.436;2023-07-22T01:58:09;101176.13;;;27.23;56.75
48846;BME280;34665;51.886;5.436;2023-07-22T02:00:35;101173.88;;;26.92;57.42
48846;BME280;34665;51.886;5.436;2023-07-22T02:03:00;101174.09;;;27.29;56.20
48846;BME280;34665;51.886;5.436;2023-07-22T02:05:26;101181.94;;;27.36;56.43
48846;BME280;34665;51.886;5.436;2023-07-22T02:07:52;101178.31;;;27.21;56.64
48846;BME280;34665;51.886;5.436;2023-07-22T02:10:20;101180.31;;;27.01;58.09
48846;BME280;34665;51.886;5.436;2023-07-22T02:12:46;101168.03;;;27.46;56.46
48846;BME280;34665;51.886;5.436;2023-07-22T02:15:12;101172.16;;;27.29;57.84
48846;BME280;34665;51.886;5.436;2023-07-22T02:17:37;101170.94;;;27.36;57.15
48846;BME280;34665;51.886;5.436;2023-07-22T02:20:03;101169.78;;;27.56;56.40
48846;BME280;34665;51.886;5.436;2023-07-22T02:22:30;101170.06;;;28.15;53.44
48846;BME280;34665;51.886;5.436;2023-07-22T02:24:55;101171.06;;;27.44;55.94
48846;BME280;34665;51.886;5.436;2023-07-22T02:27:21;101160.16;;;28.28;52.93
48846;BME280;34665;51.886;5.436;2023-07-22T02:29:46;101157.50;;;27.67;55.40
48846;BME280;34665;51.886;5.436;2023-07-22T02:32:12;101168.28;;;27.16;58.97
48846;BME280;34665;51.886;5.436;2023-07-22T02:34:37;101163.09;;;27.62;57.02
48846;BME280;34665;51.886;5.436;2023-07-22T02:37:03;101159.84;;;28.02;55.02
48846;BME280;34665;51.886;5.436;2023-07-22T02:39:30;101158.84;;;27.37;57.63
48846;BME280;34665;51.886;5.436;2023-07-22T02:41:55;101155.53;;;27.07;59.11
48846;BME280;34665;51.886;5.436;2023-07-22T02:44:21;101151.72;;;27.69;56.87
48846;BME280;34665;51.886;5.436;2023-07-22T02:46:47;101153.34;;;27.37;58.05
48846;BME280;34665;51.886;5.436;2023-07-22T02:49:14;101152.59;;;27.17;60.49
48846;BME280;34665;51.886;5.436;2023-07-22T02:51:39;101154.03;;;27.14;59.88
48846;BME280;34665;51.886;5.436;2023-07-22T02:54:05;101149.66;;;27.13;60.79
48846;BME280;34665;51.886;5.436;2023-07-22T02:56:30;101153.63;;;27.21;59.95
48846;BME280;34665;51.886;5.436;2023-07-22T02:58:56;101155.34;;;27.17;60.86
48846;BME280;34665;51.886;5.436;2023-07-22T03:01:21;101158.25;;;27.40;60.24
48846;BME280;34665;51.886;5.436;2023-07-22T03:03:47;101149.47;;;26.71;63.87
48846;BME280;34665;51.886;5.436;2023-07-22T03:06:13;101154.66;;;27.72;58.20
48846;BME280;34665;51.886;5.436;2023-07-22T03:08:39;101152.81;;;27.68;59.30
48846;BME280;34665;51.886;5.436;2023-07-22T03:11:05;101154.53;;;27.63;59.14
48846;BME280;34665;51.886;5.436;2023-07-22T03:13:31;101168.94;;;27.41;60.13
48846;BME280;34665;51.886;5.436;2023-07-22T03:15:59;101169.41;;;26.96;62.51
48846;BME280;34665;51.886;5.436;2023-07-22T03:18:24;101172.38;;;27.33;61.35
48846;BME280;34665;51.886;5.436;2023-07-22T03:20:50;101168.13;;;27.08;62.50
48846;BME280;34665;51.886;5.436;2023-07-22T03:23:17;101169.34;;;26.63;66.46
48846;BME280;34665;51.886;5.436;2023-07-22T03:25:42;101166.09;;;26.42;70.19
48846;BME280;34665;51.886;5.436;2023-07-22T03:28:08;101175.00;;;26.04;74.25
48846;BME280;34665;51.886;5.436;2023-07-22T03:30:33;101163.25;;;26.66;69.76
48846;BME280;34665;51.886;5.436;2023-07-22T03:32:59;101163.41;;;26.56;70.69
48846;BME280;34665;51.886;5.436;2023-07-22T03:35:26;101163.78;;;26.30;73.23
48846;BME280;34665;51.886;5.436;2023-07-22T03:37:52;101169.53;;;27.24;65.93
48846;BME280;34665;51.886;5.436;2023-07-22T03:40:19;101173.88;;;26.92;68.20
48846;BME280;34665;51.886;5.436;2023-07-22T03:42:55;101175.19;;;26.75;69.64
48846;BME280;34665;51.886;5.436;2023-07-22T03:45:21;101162.47;;;26.85;69.78
48846;BME280;34665;51.886;5.436;2023-07-22T03:47:51;101164.13;;;26.61;71.75
48846;BME280;34665;51.886;5.436;2023-07-22T03:50:17;101163.53;;;27.03;68.15
48846;BME280;34665;51.886;5.436;2023-07-22T03:52:42;101166.34;;;26.21;75.31
48846;BME280;34665;51.886;5.436;2023-07-22T03:55:08;101168.81;;;26.61;72.42
48846;BME280;34665;51.886;5.436;2023-07-22T03:57:33;101169.31;;;26.25;76.11
48846;BME280;34665;51.886;5.436;2023-07-22T04:00:00;101166.91;;;25.94;78.92
48846;BME280;34665;51.886;5.436;2023-07-22T04:02:25;101171.75;;;26.26;75.14
48846;BME280;34665;51.886;5.436;2023-07-22T04:04:51;101166.22;;;25.83;80.45
48846;BME280;34665;51.886;5.436;2023-07-22T04:07:17;101176.88;;;26.09;78.21
48846;BME280;34665;51.886;5.436;2023-07-22T04:09:43;101165.13;;;26.08;79.91
48846;BME280;34665;51.886;5.436;2023-07-22T04:12:10;101171.00;;;26.20;76.05
48846;BME280;34665;51.886;5.436;2023-07-22T04:14:35;101161.91;;;26.01;78.76
48846;BME280;34665;51.886;5.436;2023-07-22T04:17:01;101169.91;;;26.22;77.90
48846;BME280;34665;51.886;5.436;2023-07-22T04:19:26;101169.38;;;26.19;77.91
48846;BME280;34665;51.886;5.436;2023-07-22T04:21:52;101168.00;;;26.22;77.35
48846;BME280;34665;51.886;5.436;2023-07-22T04:24:17;101171.69;;;25.83;80.79
48846;BME280;34665;51.886;5.436;2023-07-22T04:26:44;101175.72;;;25.66;83.21
48846;BME280;34665;51.886;5.436;2023-07-22T04:29:10;101172.25;;;25.55;83.78
48846;BME280;34665;51.886;5.436;2023-07-22T04:31:37;101168.25;;;25.42;86.86
48846;BME280;34665;51.886;5.436;2023-07-22T04:34:03;101171.66;;;25.58;87.63
48846;BME280;34665;51.886;5.436;2023-07-22T04:36:31;101183.41;;;26.13;80.70
48846;BME280;34665;51.886;5.436;2023-07-22T04:38:56;101183.56;;;26.46;79.18
48846;BME280;34665;51.886;5.436;2023-07-22T04:41:21;101182.41;;;26.90;71.82
48846;BME280;34665;51.886;5.436;2023-07-22T04:43:47;101183.06;;;26.63;75.28
48846;BME280;34665;51.886;5.436;2023-07-22T04:46:13;101183.13;;;26.96;71.60
48846;BME280;34665;51.886;5.436;2023-07-22T04:48:38;101178.88;;;26.46;74.75
48846;BME280;34665;51.886;5.436;2023-07-22T04:51:04;101175.78;;;26.72;74.67
48846;BME280;34665;51.886;5.436;2023-07-22T04:53:29;101165.94;;;26.33;78.50
48846;BME280;34665;51.886;5.436;2023-07-22T04:55:55;101180.75;;;26.51;74.34
48846;BME280;34665;51.886;5.436;2023-07-22T04:58:21;101170.53;;;26.76;75.18
48846;BME280;34665;51.886;5.436;2023-07-22T05:00:46;101181.25;;;27.11;72.57
48846;BME280;34665;51.886;5.436;2023-07-22T05:03:11;101177.91;;;27.47;69.64
48846;BME280;34665;51.886;5.436;2023-07-22T05:05:37;101176.31;;;26.55;76.34
48846;BME280;34665;51.886;5.436;2023-07-22T05:08:03;101181.25;;;26.72;76.17
48846;BME280;34665;51.886;5.436;2023-07-22T05:10:29;101175.19;;;26.37;78.13
48846;BME280;34665;51.886;5.436;2023-07-22T05:12:54;101170.78;;;26.17;81.63
48846;BME280;34665;51.886;5.436;2023-07-22T05:15:20;101180.13;;;27.12;74.68
48846;BME280;34665;51.886;5.436;2023-07-22T05:17:45;101177.53;;;27.20;72.89
48846;BME280;34665;51.886;5.436;2023-07-22T05:20:11;101180.75;;;26.70;77.15
48846;BME280;34665;51.886;5.436;2023-07-22T05:22:38;101184.03;;;26.91;76.03
48846;BME280;34665;51.886;5.436;2023-07-22T05:25:04;101186.31;;;26.65;77.84
48846;BME280;34665;51.886;5.436;2023-07-22T05:27:30;101191.09;;;27.45;71.70
48846;BME280;34665;51.886;5.436;2023-07-22T05:29:56;101170.66;;;26.46;78.06
48846;BME280;34665;51.886;5.436;2023-07-22T05:32:21;101177.41;;;26.54;77.04
48846;BME280;34665;51.886;5.436;2023-07-22T05:34:47;101193.09;;;27.25;72.57
48846;BME280;34665;51.886;5.436;2023-07-22T05:37:12;101185.59;;;26.98;73.69
48846;BME280;34665;51.886;5.436;2023-07-22T05:39:38;101194.09;;;26.77;74.55
48846;BME280;34665;51.886;5.436;2023-07-22T05:42:03;101201.06;;;27.41;71.31
48846;BME280;34665;51.886;5.436;2023-07-22T05:44:29;101194.84;;;27.82;67.54
48846;BME280;34665;51.886;5.436;2023-07-22T05:46:54;101198.09;;;27.04;72.51
48846;BME280;34665;51.886;5.436;2023-07-22T05:49:20;101192.78;;;27.27;70.21
48846;BME280;34665;51.886;5.436;2023-07-22T05:51:46;101198.19;;;27.51;68.64
48846;BME280;34665;51.886;5.436;2023-07-22T05:54:11;101191.03;;;27.17;70.57
48846;BME280;34665;51.886;5.436;2023-07-22T05:56:37;101177.91;;;26.75;73.35
48846;BME280;34665;51.886;5.436;2023-07-22T05:59:02;101173.16;;;27.19;72.12
48846;BME280;34665;51.886;5.436;2023-07-22T06:01:28;101182.84;;;26.98;72.36
48846;BME280;34665;51.886;5.436;2023-07-22T06:03:53;101181.47;;;27.14;72.36
48846;BME280;34665;51.886;5.436;2023-07-22T06:06:19;101185.88;;;26.96;72.51
48846;BME280;34665;51.886;5.436;2023-07-22T06:08:45;101186.41;;;27.31;69.99
48846;BME280;34665;51.886;5.436;2023-07-22T06:11:10;101184.91;;;27.39;69.61
48846;BME280;34665;51.886;5.436;2023-07-22T06:13:36;101176.81;;;27.29;69.76
48846;BME280;34665;51.886;5.436;2023-07-22T06:16:01;101178.97;;;27.51;68.13
48846;BME280;34665;51.886;5.436;2023-07-22T06:18:27;101170.63;;;27.98;65.65
48846;BME280;34665;51.886;5.436;2023-07-22T06:20:53;101172.16;;;27.90;65.67
48846;BME280;34665;51.886;5.436;2023-07-22T06:23:18;101172.16;;;27.76;65.60
48846;BME280;34665;51.886;5.436;2023-07-22T06:25:44;101176.44;;;27.36;69.70
48846;BME280;34665;51.886;5.436;2023-07-22T06:28:09;101174.81;;;28.10;65.62
48846;BME280;34665;51.886;5.436;2023-07-22T06:30:35;101175.31;;;28.26;63.50
48846;BME280;34665;51.886;5.436;2023-07-22T06:33:00;101178.16;;;29.40;58.66
48846;BME280;34665;51.886;5.436;2023-07-22T06:35:26;101185.47;;;28.11;63.98
48846;BME280;34665;51.886;5.436;2023-07-22T06:37:51;101178.06;;;27.98;65.15
48846;BME280;34665;51.886;5.436;2023-07-22T06:40:17;101175.94;;;27.81;67.04
48846;BME280;34665;51.886;5.436;2023-07-22T06:42:42;101172.34;;;28.36;63.72
48846;BME280;34665;51.886;5.436;2023-07-22T06:45:08;101167.50;;;28.56;61.59
48846;BME280;34665;51.886;5.436;2023-07-22T06:47:33;101177.03;;;28.72;60.67
48846;BME280;34665;51.886;5.436;2023-07-22T06:50:00;101167.66;;;28.37;62.90
48846;BME280;34665;51.886;5.436;2023-07-22T06:52:25;101174.06;;;28.83;60.90
48846;BME280;34665;51.886;5.436;2023-07-22T06:54:51;101171.41;;;28.77;62.61
48846;BME280;34665;51.886;5.436;2023-07-22T06:57:16;101165.78;;;29.05;60.61
48846;BME280;34665;51.886;5.436;2023-07-22T06:59:42;101176.69;;;29.11;60.38
48846;BME280;34665;51.886;5.436;2023-07-22T07:02:07;101165.53;;;29.70;58.49
48846;BME280;34665;51.886;5.436;2023-07-22T07:04:33;101172.81;;;30.24;55.63
48846;BME280;34665;51.886;5.436;2023-07-22T07:06:59;101159.06;;;29.12;59.53
48846;BME280;34665;51.886;5.436;2023-07-22T07:09:24;101170.91;;;29.21;59.10
48846;BME280;34665;51.886;5.436;2023-07-22T07:11:50;101174.94;;;29.69;58.02
48846;BME280;34665;51.886;5.436;2023-07-22T07:14:15;101171.84;;;29.71;57.25
48846;BME280;34665;51.886;5.436;2023-07-22T07:16:41;101180.91;;;30.03;55.66
48846;BME280;34665;51.886;5.436;2023-07-22T07:19:06;101179.78;;;30.22;55.29
48846;BME280;34665;51.886;5.436;2023-07-22T07:21:31;101177.91;;;29.90;55.93
48846;BME280;34665;51.886;5.436;2023-07-22T07:23:57;101174.09;;;30.09;54.41
48846;BME280;34665;51.886;5.436;2023-07-22T07:26:22;101179.53;;;30.50;53.42
48846;BME280;34665;51.886;5.436;2023-07-22T07:28:48;101166.72;;;29.96;54.54
48846;BME280;34665;51.886;5.436;2023-07-22T07:31:16;101173.34;;;31.23;51.42
48846;BME280;34665;51.886;5.436;2023-07-22T07:33:41;101171.38;;;30.44;51.56
48846;BME280;34665;51.886;5.436;2023-07-22T07:36:06;101171.59;;;30.83;51.09
48846;BME280;34665;51.886;5.436;2023-07-22T07:38:32;101164.09;;;30.93;50.65
48846;BME280;34665;51.886;5.436;2023-07-22T07:40:59;101172.75;;;30.65;50.90
48846;BME280;34665;51.886;5.436;2023-07-22T07:43:25;101159.19;;;30.10;51.70
48846;BME280;34665;51.886;5.436;2023-07-22T07:46:11;101160.53;;;30.48;51.19
48846;BME280;34665;51.886;5.436;2023-07-22T07:48:37;101153.69;;;30.28;50.55
48846;BME280;34665;51.886;5.436;2023-07-22T07:51:03;101160.84;;;30.90;49.32
48846;BME280;34665;51.886;5.436;2023-07-22T07:53:28;101168.28;;;31.25;48.37
48846;BME280;34665;51.886;5.436;2023-07-22T07:55:54;101164.56;;;31.21;49.39
48846;BME280;34665;51.886;5.436;2023-07-22T07:58:19;101166.22;;;30.87;48.61
48846;BME280;34665;51.886;5.436;2023-07-22T08:00:45;101160.84;;;30.99;48.53
48846;BME280;34665;51.886;5.436;2023-07-22T08:03:10;101163.88;;;30.18;51.23
48846;BME280;34665;51.886;5.436;2023-07-22T08:05:36;101160.69;;;30.34;50.98
48846;BME280;34665;51.886;5.436;2023-07-22T08:08:01;101154.63;;;29.56;52.53
48846;BME280;34665;51.886;5.436;2023-07-22T08:10:26;101153.34;;;30.03;51.46
48846;BME280;34665;51.886;5.436;2023-07-22T08:12:52;101170.41;;;30.49;49.12
48846;BME280;34665;51.886;5.436;2023-07-22T08:15:18;101168.28;;;30.19;49.44
48846;BME280;34665;51.886;5.436;2023-07-22T08:17:44;101176.53;;;31.43;47.64
48846;BME280;34665;51.886;5.436;2023-07-22T08:20:10;101173.00;;;31.72;47.38
48846;BME280;34665;51.886;5.436;2023-07-22T08:22:36;101166.28;;;31.82;46.09
48846;BME280;34665;51.886;5.436;2023-07-22T08:25:01;101167.81;;;31.23;47.22
48846;BME280;34665;51.886;5.436;2023-07-22T08:27:26;101167.81;;;31.23;47.55
48846;BME280;34665;51.886;5.436;2023-07-22T08:29:52;101196.47;;;31.48;46.81
48846;BME280;34665;51.886;5.436;2023-07-22T08:32:18;101180.66;;;31.67;46.93
48846;BME280;34665;51.886;5.436;2023-07-22T08:34:43;101183.41;;;31.19;47.38
48846;BME280;34665;51.886;5.436;2023-07-22T08:37:09;101175.00;;;30.71;48.11
48846;BME280;34665;51.886;5.436;2023-07-22T08:39:35;101180.78;;;31.14;47.04
48846;BME280;34665;51.886;5.436;2023-07-22T08:42:00;101171.00;;;32.63;44.24
48846;BME280;34665;51.886;5.436;2023-07-22T08:44:28;101193.16;;;31.73;45.87
48846;BME280;34665;51.886;5.436;2023-07-22T08:46:59;101188.28;;;31.70;45.60
48846;BME280;34665;51.886;5.436;2023-07-22T08:49:25;101173.88;;;30.81;45.66
48846;BME280;34665;51.886;5.436;2023-07-22T08:51:51;101185.53;;;30.78;45.97
48846;BME280;34665;51.886;5.436;2023-07-22T08:54:19;101178.50;;;31.25;44.49
48846;BME280;34665;51.886;5.436;2023-07-22T08:56:45;101185.25;;;31.63;43.28
48846;BME280;34665;51.886;5.436;2023-07-22T08:59:11;101183.69;;;31.44;43.36
48846;BME280;34665;51.886;5.436;2023-07-22T09:01:37;101180.00;;;31.22;43.13
48846;BME280;34665;51.886;5.436;2023-07-22T09:04:04;101184.69;;;31.13;43.84
48846;BME280;34665;51.886;5.436;2023-07-22T09:06:30;101178.53;;;31.72;43.60
48846;BME280;34665;51.886;5.436;2023-07-22T09:08:56;101174.25;;;31.45;43.82
48846;BME280;34665;51.886;5.436;2023-07-22T09:11:22;101178.09;;;31.61;43.00
48846;BME280;34665;51.886;5.436;2023-07-22T09:13:48;101178.06;;;32.52;42.36
48846;BME280;34665;51.886;5.436;2023-07-22T09:16:13;101191.66;;;32.14;43.14
48846;BME280;34665;51.886;5.436;2023-07-22T09:18:40;101173.91;;;32.45;42.29
48846;BME280;34665;51.886;5.436;2023-07-22T09:21:06;101189.66;;;33.21;41.13
48846;BME280;34665;51.886;5.436;2023-07-22T09:23:32;101172.53;;;32.52;42.42
48846;BME280;34665;51.886;5.436;2023-07-22T09:26:07;101177.66;;;31.89;43.22
48846;BME280;34665;51.886;5.436;2023-07-22T09:28:46;101171.91;;;32.25;42.08
48846;BME280;34665;51.886;5.436;2023-07-22T09:31:12;101171.78;;;32.21;42.72
48846;BME280;34665;51.886;5.436;2023-07-22T09:33:37;101172.75;;;32.46;42.17
48846;BME280;34665;51.886;5.436;2023-07-22T09:36:04;101178.03;;;32.39;41.33
48846;BME280;34665;51.886;5.436;2023-07-22T09:38:29;101173.34;;;32.01;41.14
48846;BME280;34665;51.886;5.436;2023-07-22T09:40:55;101164.91;;;32.91;40.08
48846;BME280;34665;51.886;5.436;2023-07-22T09:43:21;101170.94;;;33.06;40.25
48846;BME280;34665;51.886;5.436;2023-07-22T09:45:47;101170.03;;;33.01;40.75
48846;BME280;34665;51.886;5.436;2023-07-22T09:48:14;101178.75;;;32.49;40.88
48846;BME280;34665;51.886;5.436;2023-07-22T09:50:39;101169.94;;;32.34;40.55
48846;BME280;34665;51.886;5.436;2023-07-22T09:53:06;101170.44;;;33.37;40.14
48846;BME280;34665;51.886;5.436;2023-07-22T09:55:32;101168.31;;;33.22;39.91
48846;BME280;34665;51.886;5.436;2023-07-22T09:57:58;101165.09;;;33.20;39.54
48846;BME280;34665;51.886;5.436;2023-07-22T10:00:25;101173.56;;;32.89;39.59
48846;BME280;34665;51.886;5.436;2023-07-22T10:02:52;101174.75;;;32.80;39.22
48846;BME280;34665;51.886;5.436;2023-07-22T10:05:21;101170.03;;;33.14;39.59
48846;BME280;34665;51.886;5.436;2023-07-22T10:07:51;101176.84;;;32.19;40.62
48846;BME280;34665;51.886;5.436;2023-07-22T10:10:17;101174.75;;;31.86;40.63
48846;BME280;34665;51.886;5.436;2023-07-22T10:12:43;101162.03;;;32.15;39.51
48846;BME280;34665;51.886;5.436;2023-07-22T10:15:12;101150.44;;;32.00;39.47
48846;BME280;34665;51.886;5.436;2023-07-22T10:17:39;101156.50;;;33.46;38.63
48846;BME280;34665;51.886;5.436;2023-07-22T10:20:05;101151.69;;;32.03;40.26
48846;BME280;34665;51.886;5.436;2023-07-22T10:22:36;101148.63;;;32.26;39.19
48846;BME280;34665;51.886;5.436;2023-07-22T10:25:05;101145.69;;;31.32;39.65
48846;BME280;34665;51.886;5.436;2023-07-22T10:27:34;101157.44;;;30.94;39.13
48846;BME280;34665;51.886;5.436;2023-07-22T10:30:00;101156.84;;;30.61;39.67
48846;BME280;34665;51.886;5.436;2023-07-22T10:32:31;101154.34;;;31.04;39.77
48846;BME280;34665;51.886;5.436;2023-07-22T10:34:56;101154.66;;;30.23;43.47
48846;BME280;34665;51.886;5.436;2023-07-22T10:37:29;101161.75;;;31.39;42.84
48846;BME280;34665;51.886;5.436;2023-07-22T10:39:58;101158.44;;;31.54;41.84
48846;BME280;34665;51.886;5.436;2023-07-22T10:42:24;101155.25;;;31.35;40.85
48846;BME280;34665;51.886;5.436;2023-07-22T10:44:51;101154.88;;;31.93;41.01
48846;BME280;34665;51.886;5.436;2023-07-22T10:47:30;101155.34;;;32.16;39.19
48846;BME280;34665;51.886;5.436;2023-07-22T10:49:56;101156.91;;;32.26;39.62
48846;BME280;34665;51.886;5.436;2023-07-22T10:52:43;101165.50;;;31.73;39.81
48846;BME280;34665;51.886;5.436;2023-07-22T10:55:15;101164.38;;;31.74;40.21
48846;BME280;34665;51.886;5.436;2023-07-22T10:57:48;101152.44;;;31.52;41.78
48846;BME280;34665;51.886;5.436;2023-07-22T11:00:18;101146.09;;;30.78;41.87
48846;BME280;34665;51.886;5.436;2023-07-22T11:02:46;101148.63;;;32.26;39.99
48846;BME280;34665;51.886;5.436;2023-07-22T11:05:12;101145.44;;;31.55;40.49
48846;BME280;34665;51.886;5.436;2023-07-22T11:07:42;101152.97;;;31.75;40.64
48846;BME280;34665;51.886;5.436;2023-07-22T11:10:15;101149.53;;;31.87;40.59
48846;BME280;34665;51.886;5.436;2023-07-22T11:12:42;101130.31;;;31.52;40.62
48846;BME280;34665;51.886;5.436;2023-07-22T11:15:08;101140.84;;;31.20;41.35
48846;BME280;34665;51.886;5.436;2023-07-22T11:17:34;101127.63;;;32.03;40.24
48846;BME280;34665;51.886;5.436;2023-07-22T11:19:59;101132.91;;;32.39;39.52
48846;BME280;34665;51.886;5.436;2023-07-22T11:22:25;101130.59;;;33.42;39.13
48846;BME280;34665;51.886;5.436;2023-07-22T11:24:51;101132.06;;;32.81;38.25
48846;BME280;34665;51.886;5.436;2023-07-22T11:27:16;101141.94;;;32.27;39.08
48846;BME280;34665;51.886;5.436;2023-07-22T11:29:43;101141.06;;;32.78;37.62
48846;BME280;34665;51.886;5.436;2023-07-22T11:32:15;101132.81;;;33.73;36.50
48846;BME280;34665;51.886;5.436;2023-07-22T11:34:42;101132.91;;;33.27;37.01
48846;BME280;34665;51.886;5.436;2023-07-22T11:37:10;101126.34;;;34.35;35.33
48846;BME280;34665;51.886;5.436;2023-07-22T11:39:36;101130.53;;;35.63;34.42
48846;BME280;34665;51.886;5.436;2023-07-22T11:42:02;101126.53;;;34.55;34.46
48846;BME280;34665;51.886;5.436;2023-07-22T11:44:29;101134.34;;;33.71;36.65
48846;BME280;34665;51.886;5.436;2023-07-22T11:46:59;101112.31;;;33.03;36.50
48846;BME280;34665;51.886;5.436;2023-07-22T11:49:26;101113.56;;;32.72;36.92
48846;BME280;34665;51.886;5.436;2023-07-22T11:52:11;101117.94;;;32.40;37.21
48846;BME280;34665;51.886;5.436;2023-07-22T11:54:40;101115.25;;;32.31;37.73
48846;BME280;34665;51.886;5.436;2023-07-22T11:57:20;101118.63;;;32.58;39.06
48846;BME280;34665;51.886;5.436;2023-07-22T11:59:47;101138.13;;;30.85;51.19
48846;BME280;34665;51.886;5.436;2023-07-22T12:02:13;101144.16;;;29.85;78.09
48846;BME280;34665;51.886;5.436;2023-07-22T12:04:39;101126.84;;;28.89;87.43
48846;BME280;34665;51.886;5.436;2023-07-22T12:07:04;101137.97;;;29.39;90.81
48846;BME280;34665;51.886;5.436;2023-07-22T12:09:30;101140.53;;;28.81;90.88
48846;BME280;34665;51.886;5.436;2023-07-22T12:11:56;101132.81;;;29.14;90.36
48846;BME280;34665;51.886;5.436;2023-07-22T12:14:32;101129.50;;;29.03;100.00
48846;BME280;34665;51.886;5.436;2023-07-22T12:16:58;101131.31;;;30.12;92.98
48846;BME280;34665;51.886;5.436;2023-07-22T12:19:24;101121.16;;;29.89;94.15
48846;BME280;34665;51.886;5.436;2023-07-22T12:21:49;101123.75;;;29.95;92.61
48846;BME280;34665;51.886;5.436;2023-07-22T12:24:15;101120.25;;;30.29;89.61
48846;BME280;34665;51.886;5.436;2023-07-22T12:26:40;101123.84;;;30.74;85.08
48846;BME280;34665;51.886;5.436;2023-07-22T12:29:06;101122.56;;;30.71;81.96
48846;BME280;34665;51.886;5.436;2023-07-22T12:31:31;101121.09;;;31.78;78.46
48846;BME280;34665;51.886;5.436;2023-07-22T12:33:57;101125.19;;;31.42;71.00
48846;BME280;34665;51.886;5.436;2023-07-22T12:36:23;101116.69;;;32.37;70.78
48846;BME280;34665;51.886;5.436;2023-07-22T12:38:48;101121.31;;;32.67;65.58
48846;BME280;34665;51.886;5.436;2023-07-22T12:41:14;101116.41;;;32.64;63.79
48846;BME280;34665;51.886;5.436;2023-07-22T12:43:39;101121.47;;;33.16;61.14
48846;BME280;34665;51.886;5.436;2023-07-22T12:46:05;101114.41;;;32.85;59.60